Terminal Aerodrome Forecast
Issued by NWS Twin Cities, MN

Home | Current Version | Previous Version | Text Only | Print | Product List | Glossary Off
Versions: 1 2 3 4 5 6 7 8 9 10 11 12 13 14 15 16 17 18 19 20 21 22 23 24 25 26 27 28 29 30

000
FTUS43 KMPX 242000 AAA
TAFMSP
TAF AMD
KMSP 242048Z 2421/2524 30007KT P6SM OVC015
     FM250000 28006KT P6SM OVC012
     FM250600 21006KT P6SM BKN020 OVC080
     FM250900 19006KT P6SM SCT020 OVC040
     FM251800 16005KT 5SM BR OVC012=

USA.gov is the U.S. government's official web portal to all federal, state and local government web resources and services.